Time;durP1;ratioP1;P1;durP2;ratioP2;P2;SDS_P1;SDS_P2;PMS_P1;PMS_P2;Temp;Humidity;BMP_temperature;BMP_pressure;BME280_temperature;BME280_humidity;BME280_pressure;Samples;Min_cycle;Max_cycle;Signal;HPM_P1;HPM_P2
2023/08/07 00:02:23;;;;;;;1.02;0.40;;;;;;;26.17;38.70;98834.66;4331567;33;34011;-67
2023/08/07 00:04:50;;;;;;;0.40;0.40;;;;;;;26.17;38.65;98821.00;4331501;33;33093;-67
2023/08/07 00:07:18;;;;;;;2.15;0.43;;;;;;;26.16;38.63;98824.81;4331298;33;33429;-68
2023/08/07 00:09:45;;;;;;;1.25;0.40;;;;;;;26.16;38.81;98821.25;4331313;33;34006;-67
2023/08/07 00:12:13;;;;;;;1.17;0.55;;;;;;;26.16;38.48;98822.09;4325577;33;34693;-67
2023/08/07 00:14:41;;;;;;;0.50;0.50;;;;;;;26.16;38.41;98823.97;4316357;33;34535;-68
2023/08/07 00:17:08;;;;;;;1.48;0.50;;;;;;;26.13;38.41;98824.53;4316603;33;34296;-67
2023/08/07 00:19:36;;;;;;;0.93;0.40;;;;;;;26.11;38.11;98822.06;4316558;33;33942;-67
2023/08/07 00:22:04;;;;;;;0.50;0.50;;;;;;;26.10;38.17;98814.94;4316460;33;33809;-67
2023/08/07 00:24:31;;;;;;;0.98;0.55;;;;;;;26.09;38.23;98818.78;4316661;33;33151;-68
2023/08/07 00:26:59;;;;;;;0.93;0.50;;;;;;;26.08;38.50;98814.41;4327347;33;34743;-67
2023/08/07 00:29:27;;;;;;;2.30;0.47;;;;;;;26.08;38.31;98808.09;4316317;33;33486;-68
2023/08/07 00:31:54;;;;;;;0.40;0.40;;;;;;;26.07;38.34;98812.75;4317616;33;33898;-67
2023/08/07 00:34:22;;;;;;;1.48;0.57;;;;;;;26.07;38.47;98812.75;4318365;33;33430;-67
2023/08/07 00:36:50;;;;;;;1.12;0.40;;;;;;;26.08;38.22;98814.41;4318316;33;34547;-67
2023/08/07 00:39:17;;;;;;;1.27;0.50;;;;;;;26.06;38.33;98823.94;4318280;33;33818;-67
2023/08/07 00:41:45;;;;;;;0.70;0.60;;;;;;;26.06;38.31;98826.69;4318312;33;34016;-67
2023/08/07 00:44:13;;;;;;;3.15;0.50;;;;;;;26.06;38.66;98829.41;4318255;33;33307;-67
2023/08/07 00:46:41;;;;;;;0.60;0.40;;;;;;;26.06;38.62;98834.87;4318309;33;33220;-67
2023/08/07 00:49:09;;;;;;;1.05;0.50;;;;;;;26.04;38.43;98835.16;4317096;33;34008;-67
2023/08/07 00:51:37;;;;;;;0.50;0.50;;;;;;;26.03;38.42;98816.28;4317021;33;33714;-67
2023/08/07 00:54:05;;;;;;;1.48;0.47;;;;;;;26.04;38.59;98820.66;4318300;33;34261;-67
2023/08/07 00:56:33;;;;;;;0.30;0.30;;;;;;;26.05;38.65;98816.84;4318303;33;33848;-67
2023/08/07 00:59:00;;;;;;;0.62;0.62;;;;;;;26.04;38.55;98809.72;4328891;33;33538;-67
2023/08/07 01:01:29;;;;;;;2.83;0.60;;;;;;;26.04;38.50;98810.53;4316954;33;34009;-67
2023/08/07 01:03:57;;;;;;;0.47;0.40;;;;;;;26.05;38.67;98812.19;4329136;33;33771;-67
2023/08/07 01:06:24;;;;;;;0.40;0.40;;;;;;;26.03;38.66;98808.91;4318058;33;34330;-67
2023/08/07 01:08:53;;;;;;;1.65;0.52;;;;;;;26.04;38.59;98812.47;4318203;33;33489;-68
2023/08/07 01:11:43;;;;;;;0.50;0.50;;;;;;;26.04;38.33;98818.75;4316883;33;33947;-67
2023/08/07 01:14:36;;;;;;;0.50;0.50;;;;;;;26.06;38.33;98821.22;4331542;33;33407;-68
2023/08/07 01:17:10;;;;;;;0.95;0.60;;;;;;;26.06;38.54;98816.56;4331777;33;34008;-67
2023/08/07 01:19:38;;;;;;;0.60;0.50;;;;;;;26.02;38.51;98831.03;4332529;33;33904;-67
2023/08/07 01:22:12;;;;;;;0.55;0.40;;;;;;;26.00;38.48;98828.56;4319274;33;33898;-67
2023/08/07 01:24:41;;;;;;;0.50;0.50;;;;;;;26.01;38.59;98840.31;4331403;33;34145;-67
2023/08/07 01:27:18;;;;;;;0.40;0.40;;;;;;;26.02;38.33;98834.59;4331338;33;34735;-68
2023/08/07 01:29:49;;;;;;;1.08;0.50;;;;;;;26.02;38.09;98842.81;4332614;33;33949;-67
2023/08/07 01:32:22;;;;;;;0.52;0.40;;;;;;;26.00;38.30;98839.50;4332668;33;33604;-67
2023/08/07 01:34:50;;;;;;;0.43;0.40;;;;;;;25.99;38.29;98843.34;4331467;33;33160;-68
2023/08/07 01:37:17;;;;;;;0.47;0.40;;;;;;;26.00;38.10;98847.69;4319350;33;34660;-67
2023/08/07 01:39:45;;;;;;;0.57;0.57;;;;;;;25.99;37.85;98846.06;4331219;33;33461;-67
2023/08/07 01:42:12;;;;;;;1.00;0.57;;;;;;;25.98;37.93;98841.69;4331093;33;34675;-67
2023/08/07 01:44:42;;;;;;;5.35;0.60;;;;;;;25.98;37.74;98846.34;4319310;33;33377;-67
2023/08/07 01:47:09;;;;;;;1.12;0.57;;;;;;;25.98;37.85;98827.22;4331191;33;34422;-67
2023/08/07 01:49:38;;;;;;;2.28;0.50;;;;;;;25.97;38.12;98845.50;4332412;33;34780;-67
2023/08/07 01:52:07;;;;;;;0.50;0.40;;;;;;;25.97;38.18;98850.13;4319515;33;34015;-68
2023/08/07 01:54:35;;;;;;;0.47;0.40;;;;;;;25.96;38.20;98852.06;4332300;33;34397;-67
2023/08/07 01:57:02;;;;;;;0.50;0.50;;;;;;;25.95;38.10;98848.50;4332781;33;33912;-67
2023/08/07 01:59:30;;;;;;;2.03;0.50;;;;;;;25.95;37.71;98848.50;4332448;33;33831;-67
2023/08/07 02:01:58;;;;;;;0.50;0.50;;;;;;;25.94;37.67;98854.25;4332263;33;34602;-67
2023/08/07 02:04:26;;;;;;;1.35;0.60;;;;;;;25.95;37.83;98845.78;4332433;33;33316;-67
2023/08/07 02:06:53;;;;;;;1.70;0.50;;;;;;;25.92;37.63;98850.94;4332567;33;33964;-67
2023/08/07 02:09:22;;;;;;;0.45;0.43;;;;;;;25.92;37.68;98848.19;4332275;33;34055;-67
2023/08/07 02:11:50;;;;;;;0.37;0.37;;;;;;;25.90;37.75;98844.94;4315800;33;34617;-67
2023/08/07 02:14:18;;;;;;;1.85;0.37;;;;;;;25.89;37.41;98838.66;4322125;33;32994;-68
2023/08/07 02:16:45;;;;;;;0.50;0.50;;;;;;;25.88;37.42;98849.81;4332395;33;33793;-67
2023/08/07 02:19:13;;;;;;;1.08;0.50;;;;;;;25.88;37.64;98836.16;4332229;33;34771;-67
2023/08/07 02:21:41;;;;;;;2.00;0.57;;;;;;;25.88;37.82;98845.19;4332459;33;33946;-67
2023/08/07 02:24:08;;;;;;;2.80;0.40;;;;;;;25.89;37.72;98838.66;4332273;33;33366;-67
2023/08/07 02:26:38;;;;;;;0.40;0.40;;;;;;;25.90;37.76;98834.00;4332649;33;34178;-67
2023/08/07 02:29:07;;;;;;;4.12;0.50;;;;;;;25.90;37.59;98856.69;4332344;33;34734;-67
2023/08/07 02:31:34;;;;;;;0.82;0.60;;;;;;;25.88;37.52;98849.81;4332116;33;33938;-67
2023/08/07 02:34:02;;;;;;;1.20;0.40;;;;;;;25.88;37.52;98858.88;4332303;33;33009;-67
2023/08/07 02:36:30;;;;;;;1.02;0.60;;;;;;;25.87;37.48;98854.47;4332325;33;34852;-67
2023/08/07 02:38:58;;;;;;;1.10;0.52;;;;;;;25.87;37.45;98842.72;4332122;33;33941;-68
2023/08/07 02:41:26;;;;;;;0.62;0.60;;;;;;;25.87;36.98;98853.66;4332296;33;34868;-67
2023/08/07 02:43:53;;;;;;;1.08;0.50;;;;;;;25.84;36.93;98846.81;4332158;33;33682;-67
2023/08/07 02:46:21;;;;;;;0.62;0.50;;;;;;;25.83;37.31;98849.78;4332012;33;33640;-68
2023/08/07 02:48:49;;;;;;;0.40;0.40;;;;;;;25.83;37.11;98849.78;4332447;33;34218;-67
2023/08/07 02:51:16;;;;;;;0.50;0.50;;;;;;;25.82;37.17;98848.16;4318948;33;33127;-67
2023/08/07 02:53:44;;;;;;;2.05;0.80;;;;;;;25.82;37.43;98864.56;4332170;33;34450;-67
2023/08/07 02:56:12;;;;;;;1.20;0.57;;;;;;;25.82;37.06;98861.81;4331247;33;33677;-67
2023/08/07 02:58:39;;;;;;;2.10;0.70;;;;;;;25.80;37.17;98858.53;4332076;33;34011;-67
2023/08/07 03:01:07;;;;;;;0.50;0.50;;;;;;;25.80;37.15;98859.38;4332248;33;33632;-67
2023/08/07 03:03:35;;;;;;;1.77;0.68;;;;;;;25.80;37.24;98858.53;4332195;33;33147;-67
2023/08/07 03:06:03;;;;;;;1.42;0.70;;;;;;;25.80;37.36;98867.56;4332319;33;33851;-67
2023/08/07 03:08:30;;;;;;;0.68;0.40;;;;;;;25.81;37.42;98868.38;4331923;33;33625;-67
2023/08/07 03:10:58;;;;;;;1.05;0.55;;;;;;;25.80;37.28;98873.03;4332102;33;34611;-67
2023/08/07 03:13:26;;;;;;;1.08;0.77;;;;;;;25.81;36.79;98871.13;4331977;33;33359;-67
2023/08/07 03:16:00;;;;;;;2.87;0.80;;;;;;;25.80;37.01;98873.03;4318540;33;33364;-67
2023/08/07 03:18:28;;;;;;;0.98;0.52;;;;;;;25.80;37.13;98875.75;4332239;33;34457;-67
2023/08/07 03:20:56;;;;;;;1.15;0.77;;;;;;;25.82;37.06;98880.94;4318399;33;33383;-67
2023/08/07 03:23:24;;;;;;;1.80;0.70;;;;;;;25.81;36.89;98871.13;4331925;33;33204;-67
2023/08/07 03:26:05;;;;;;;1.10;0.55;;;;;;;25.80;36.90;98877.69;4325671;33;34605;-67
2023/08/07 03:28:36;;;;;;;0.70;0.57;;;;;;;25.81;36.69;98865.66;4316445;33;33472;-67
2023/08/07 03:31:04;;;;;;;0.90;0.40;;;;;;;25.79;36.87;98874.13;4317341;33;34034;-67
2023/08/07 03:33:32;;;;;;;1.33;0.57;;;;;;;25.79;36.76;98870.56;4317329;33;33332;-67
2023/08/07 03:36:01;;;;;;;0.93;0.80;;;;;;;25.78;36.83;98871.63;4303921;33;34784;-68
2023/08/07 03:38:29;;;;;;;1.53;0.70;;;;;;;25.79;37.12;98878.75;4315781;33;34830;-68
2023/08/07 03:40:56;;;;;;;3.10;0.75;;;;;;;25.80;36.76;98878.50;4316140;33;33803;-68
2023/08/07 03:43:24;;;;;;;1.55;0.60;;;;;;;25.79;36.55;98884.22;4310276;33;34202;-67
2023/08/07 03:45:58;;;;;;;0.40;0.40;;;;;;;25.77;36.74;98889.13;4319208;33;33979;-67
2023/08/07 03:48:30;;;;;;;1.35;0.80;;;;;;;25.76;36.99;98893.75;4305069;33;33775;-67
2023/08/07 03:51:07;;;;;;;0.93;0.60;;;;;;;25.77;36.53;98889.13;4315905;33;33579;-67
2023/08/07 03:53:36;;;;;;;2.30;0.60;;;;;;;25.77;36.73;98891.84;4315927;33;34104;-68
2023/08/07 03:56:04;;;;;;;0.65;0.60;;;;;;;25.75;36.77;98897.56;4316915;33;34470;-67
2023/08/07 03:58:31;;;;;;;1.35;0.90;;;;;;;25.74;36.46;98898.66;4317125;33;34822;-67
2023/08/07 04:00:59;;;;;;;0.85;0.62;;;;;;;25.73;36.43;98901.63;4316563;33;34671;-68
2023/08/07 04:03:27;;;;;;;1.67;0.70;;;;;;;25.70;36.45;98900.25;4315705;33;32251;-68
2023/08/07 04:05:55;;;;;;;2.87;0.60;;;;;;;25.69;36.37;98898.59;4317361;33;33468;-67
2023/08/07 04:08:23;;;;;;;2.05;0.90;;;;;;;25.69;36.49;98904.91;4318481;33;33568;-68
2023/08/07 04:11:04;;;;;;;2.65;0.60;;;;;;;25.69;36.63;98907.62;4318575;33;34622;-67
2023/08/07 04:13:32;;;;;;;1.40;0.70;;;;;;;25.72;36.46;98914.47;4317060;33;33397;-67
2023/08/07 04:16:04;;;;;;;1.90;0.77;;;;;;;25.69;36.29;98918.56;4317269;33;33574;-68
2023/08/07 04:18:32;;;;;;;1.27;0.60;;;;;;;25.67;36.31;98919.91;4318482;33;34379;-68
2023/08/07 04:21:01;;;;;;;1.50;0.70;;;;;;;25.66;36.47;98916.34;4317248;33;34477;-68
2023/08/07 04:23:28;;;;;;;2.05;0.75;;;;;;;25.66;36.25;98921.00;4317211;33;33596;-68
2023/08/07 04:25:56;;;;;;;1.12;0.50;;;;;;;25.65;36.11;98914.72;4305286;33;33630;-68
2023/08/07 04:28:24;;;;;;;3.78;0.80;;;;;;;25.64;36.25;98917.69;4318332;33;33962;-68
2023/08/07 04:30:51;;;;;;;1.85;0.60;;;;;;;25.64;36.52;98914.94;4318444;33;33348;-67
2023/08/07 04:33:19;;;;;;;2.30;0.80;;;;;;;25.64;36.29;98928.63;4317261;33;33238;-67
2023/08/07 04:35:47;;;;;;;2.87;0.77;;;;;;;25.63;36.19;98916.88;4316966;33;33631;-67
2023/08/07 04:38:15;;;;;;;3.60;0.90;;;;;;;25.63;36.40;98927.78;4318472;33;34515;-67
2023/08/07 04:40:44;;;;;;;1.52;0.85;;;;;;;25.63;36.11;98918.78;4317223;33;34692;-68
2023/08/07 04:43:13;;;;;;;1.70;0.80;;;;;;;25.61;36.17;98929.97;4305082;33;32910;-67
2023/08/07 04:45:41;;;;;;;1.27;0.70;;;;;;;25.61;35.98;98919.06;4318307;33;34330;-68
2023/08/07 04:48:08;;;;;;;1.52;0.70;;;;;;;25.59;36.31;98923.94;4318278;33;34829;-68
2023/08/07 04:50:37;;;;;;;0.62;0.62;;;;;;;25.59;36.25;98926.66;4318258;33;33631;-67
2023/08/07 04:53:05;;;;;;;2.92;0.95;;;;;;;25.59;35.91;98932.13;4318309;33;33370;-68
2023/08/07 04:55:33;;;;;;;2.08;0.90;;;;;;;25.60;36.31;98922.88;4318223;33;34745;-67
2023/08/07 04:58:00;;;;;;;1.02;0.70;;;;;;;25.57;35.93;98923.38;4318244;33;35078;-68
2023/08/07 05:00:28;;;;;;;0.50;0.50;;;;;;;25.57;36.06;98930.75;4318068;33;34537;-67
2023/08/07 05:02:56;;;;;;;0.65;0.65;;;;;;;25.57;36.17;98922.56;4318199;33;34204;-67
2023/08/07 05:05:24;;;;;;;1.65;0.80;;;;;;;25.56;35.95;98919.00;4318235;33;33616;-66
2023/08/07 05:07:51;;;;;;;2.42;0.80;;;;;;;25.56;36.06;98923.66;4318205;33;33295;-67
2023/08/07 05:10:19;;;;;;;3.22;0.80;;;;;;;25.55;35.88;98920.06;4317935;33;34180;-67
2023/08/07 05:12:48;;;;;;;1.35;0.60;;;;;;;25.56;36.34;98920.94;4327041;33;33838;-67
2023/08/07 05:15:17;;;;;;;1.10;0.70;;;;;;;25.56;36.28;98927.22;4332758;33;34618;-67
2023/08/07 05:17:44;;;;;;;1.27;0.90;;;;;;;25.57;36.05;98917.91;4332100;33;33882;-67
2023/08/07 05:20:12;;;;;;;2.87;0.77;;;;;;;25.57;36.14;98934.31;4332631;33;34131;-67
2023/08/07 05:22:40;;;;;;;3.95;0.70;;;;;;;25.57;36.13;98930.75;4332732;33;33062;-67
2023/08/07 05:25:09;;;;;;;1.80;0.90;;;;;;;25.57;36.33;98928.84;4332580;33;33539;-67
2023/08/07 05:27:37;;;;;;;2.23;1.00;;;;;;;25.58;36.26;98941.41;4332848;33;34886;-67
2023/08/07 05:30:05;;;;;;;5.25;0.98;;;;;;;25.57;35.93;98939.78;4331459;33;33750;-67
2023/08/07 05:32:33;;;;;;;1.67;0.80;;;;;;;25.56;36.26;98945.50;4319236;33;33969;-67
2023/08/07 05:35:01;;;;;;;2.80;0.90;;;;;;;25.56;36.13;98953.72;4319294;33;34012;-66
2023/08/07 05:37:31;;;;;;;4.12;0.90;;;;;;;25.57;36.38;98960.81;4332648;33;34111;-67
2023/08/07 05:39:58;;;;;;;3.25;0.98;;;;;;;25.58;36.56;98956.97;4332397;33;34571;-68
2023/08/07 05:42:26;;;;;;;1.23;0.77;;;;;;;25.58;36.24;98963.28;4332605;33;33146;-67
2023/08/07 05:44:54;;;;;;;5.70;0.95;;;;;;;25.58;36.42;98960.53;4332287;33;34650;-67
2023/08/07 05:47:21;;;;;;;0.80;0.60;;;;;;;25.60;36.30;98960.25;4332253;33;34010;-67
2023/08/07 05:49:49;;;;;;;1.58;0.85;;;;;;;25.60;36.09;98965.72;4332477;33;33488;-67
2023/08/07 05:52:17;;;;;;;3.25;0.82;;;;;;;25.60;36.41;98965.72;4332511;33;34006;-68
2023/08/07 05:54:45;;;;;;;1.83;1.00;;;;;;;25.59;36.12;98969.56;4331029;33;34663;-68
2023/08/07 05:57:12;;;;;;;1.50;0.93;;;;;;;25.59;35.67;98975.00;4332558;33;34037;-68
2023/08/07 05:59:40;;;;;;;0.80;0.70;;;;;;;25.58;35.72;98974.19;4332397;33;33824;-68
2023/08/07 06:02:09;;;;;;;2.78;1.00;;;;;;;25.58;35.73;98981.56;4332243;33;33598;-68
2023/08/07 06:04:38;;;;;;;2.50;1.10;;;;;;;25.57;35.85;98980.75;4332472;33;33920;-68
2023/08/07 06:07:05;;;;;;;1.52;0.80;;;;;;;25.57;35.99;98988.13;4331301;33;34064;-68
2023/08/07 06:09:33;;;;;;;1.00;0.80;;;;;;;25.59;36.17;98983.22;4319049;33;34562;-68
2023/08/07 06:12:01;;;;;;;1.23;0.90;;;;;;;25.59;36.36;98991.41;4327821;33;33639;-68
2023/08/07 06:14:28;;;;;;;1.67;0.90;;;;;;;25.58;36.37;98990.59;4322852;33;34509;-68
2023/08/07 06:16:57;;;;;;;5.10;1.10;;;;;;;25.57;36.53;98991.69;4332328;33;33701;-68
2023/08/07 06:19:27;;;;;;;4.45;1.40;;;;;;;25.58;36.15;98982.38;4332532;33;34629;-68
2023/08/07 06:21:59;;;;;;;4.95;1.10;;;;;;;25.59;36.09;98986.75;4332128;33;32652;-68
2023/08/07 06:24:28;;;;;;;4.50;1.17;;;;;;;25.59;36.10;98992.22;4319167;33;33653;-69
2023/08/07 06:26:56;;;;;;;4.57;1.15;;;;;;;25.60;36.31;98993.03;4332245;33;34327;-68
2023/08/07 06:29:24;;;;;;;2.35;1.05;;;;;;;25.58;36.49;98993.31;4325329;33;33827;-68
2023/08/07 06:31:52;;;;;;;4.70;1.10;;;;;;;25.60;36.53;98990.31;4316663;33;33550;-68
2023/08/07 06:34:19;;;;;;;3.00;0.77;;;;;;;25.60;36.39;98999.38;4316903;33;34640;-68
2023/08/07 06:36:47;;;;;;;1.33;0.80;;;;;;;25.62;36.44;98999.91;4316805;33;34041;-68
2023/08/07 06:39:15;;;;;;;3.85;1.17;;;;;;;25.63;36.46;99003.47;4317151;33;33678;-67
2023/08/07 06:41:42;;;;;;;2.53;1.10;;;;;;;25.62;36.63;98999.91;4317457;33;34155;-68
2023/08/07 06:44:10;;;;;;;3.97;1.33;;;;;;;25.63;36.81;99001.56;4317745;33;33878;-69
2023/08/07 06:46:38;;;;;;;3.92;1.10;;;;;;;25.64;36.98;99010.56;4317503;33;33908;-68
2023/08/07 06:49:06;;;;;;;2.65;0.80;;;;;;;25.65;36.40;99001.31;4317513;33;35515;-69
2023/08/07 06:51:33;;;;;;;1.58;0.98;;;;;;;25.66;36.22;99005.69;4317133;33;33218;-68
2023/08/07 06:54:01;;;;;;;3.25;0.90;;;;;;;25.64;36.64;99005.94;4317468;33;33854;-68
2023/08/07 06:56:28;;;;;;;2.50;0.85;;;;;;;25.65;36.13;99015.78;4317448;33;33994;-68
2023/08/07 06:58:56;;;;;;;1.30;0.70;;;;;;;25.63;35.95;99015.22;4317286;33;33865;-68
2023/08/07 07:01:24;;;;;;;1.20;0.93;;;;;;;25.62;36.25;99019.03;4317425;33;33410;-68
2023/08/07 07:03:52;;;;;;;1.37;0.70;;;;;;;25.62;35.90;99016.31;4317859;33;33164;-67
2023/08/07 07:06:20;;;;;;;5.70;0.88;;;;;;;25.60;36.17;99015.75;4325718;33;34583;-67
2023/08/07 07:08:48;;;;;;;2.87;0.80;;;;;;;25.62;36.39;99010.03;4317673;33;34117;-67
2023/08/07 07:11:16;;;;;;;2.95;0.77;;;;;;;25.61;36.38;99014.66;4328610;33;33355;-67
2023/08/07 07:13:46;;;;;;;3.05;0.90;;;;;;;25.61;36.41;99022.03;4301822;33;34576;-67
2023/08/07 07:16:14;;;;;;;1.55;0.70;;;;;;;25.60;36.46;99020.38;4289809;33;33523;-67
2023/08/07 07:18:43;;;;;;;0.80;0.80;;;;;;;25.61;36.20;99022.03;4302834;33;33628;-68
2023/08/07 07:21:10;;;;;;;1.50;0.90;;;;;;;25.60;36.31;99026.69;4302754;33;33805;-67
2023/08/07 07:23:38;;;;;;;2.00;0.88;;;;;;;25.61;36.11;99032.97;4327049;33;34687;-67
2023/08/07 07:26:06;;;;;;;1.10;0.70;;;;;;;25.57;36.01;99038.13;4331752;33;33981;-68
2023/08/07 07:28:33;;;;;;;1.75;0.90;;;;;;;25.57;35.89;99020.91;4332097;33;33855;-67
2023/08/07 07:31:01;;;;;;;5.78;1.15;;;;;;;25.55;35.91;99021.16;4331968;33;32921;-67
2023/08/07 07:33:29;;;;;;;1.62;0.90;;;;;;;25.56;35.91;99017.34;4330407;33;33740;-67
2023/08/07 07:35:57;;;;;;;1.75;0.82;;;;;;;25.55;36.18;99032.06;4331801;33;34745;-67
2023/08/07 07:38:26;;;;;;;1.00;0.70;;;;;;;25.56;36.25;99022.00;4331665;33;34162;-67
2023/08/07 07:40:56;;;;;;;1.65;0.70;;;;;;;25.55;36.09;99023.88;4330760;33;34253;-68
2023/08/07 07:43:23;;;;;;;1.02;0.80;;;;;;;25.55;36.38;99023.88;4331777;33;34221;-68
2023/08/07 07:45:54;;;;;;;1.23;0.82;;;;;;;25.57;36.27;99031.84;4331575;33;34171;-67
2023/08/07 07:48:21;;;;;;;1.45;0.90;;;;;;;25.56;36.23;99036.47;4331491;33;34724;-68
2023/08/07 07:50:49;;;;;;;2.20;0.80;;;;;;;25.56;36.34;99031.00;4331692;33;33063;-68
2023/08/07 07:53:16;;;;;;;2.03;0.90;;;;;;;25.56;36.12;99039.22;4331461;33;33960;-67
2023/08/07 07:55:48;;;;;;;1.77;0.73;;;;;;;25.57;35.99;99042.75;4331404;33;33559;-70
2023/08/07 07:58:15;;;;;;;9.98;1.45;;;;;;;25.56;36.35;99052.03;4330738;33;33816;-68
2023/08/07 08:00:43;;;;;;;2.75;0.75;;;;;;;25.56;35.90;99050.13;4315018;33;33101;-67
2023/08/07 08:03:12;;;;;;;1.65;0.80;;;;;;;25.56;36.03;99052.03;4314602;33;34073;-67
2023/08/07 08:05:39;;;;;;;2.25;0.90;;;;;;;25.56;36.01;99049.31;4315031;33;33503;-67
2023/08/07 08:08:07;;;;;;;1.50;0.70;;;;;;;25.56;35.96;99066.53;4315356;33;33913;-68
2023/08/07 08:10:35;;;;;;;2.10;0.90;;;;;;;25.57;35.96;99059.97;4315826;33;33100;-68
2023/08/07 08:13:03;;;;;;;1.08;0.52;;;;;;;25.57;35.91;99070.06;4315695;33;34219;-69
2023/08/07 08:15:31;;;;;;;0.93;0.70;;;;;;;25.58;35.82;99077.19;4315873;33;33569;-68
2023/08/07 08:17:59;;;;;;;1.77;0.57;;;;;;;25.59;35.55;99076.09;4316685;33;33558;-68
2023/08/07 08:20:26;;;;;;;1.08;0.65;;;;;;;25.57;35.56;99073.63;4316682;33;33461;-67
2023/08/07 08:22:54;;;;;;;1.27;0.57;;;;;;;25.56;35.54;99080.19;4303596;33;33812;-69
2023/08/07 08:25:22;;;;;;;0.80;0.62;;;;;;;25.56;35.64;99085.66;4316637;33;34003;-68
2023/08/07 08:27:51;;;;;;;0.88;0.70;;;;;;;25.57;35.45;99081.81;4316415;33;34100;-68
2023/08/07 08:30:18;;;;;;;0.75;0.62;;;;;;;25.56;35.43;99090.28;4316262;33;34260;-68
2023/08/07 08:32:46;;;;;;;0.75;0.60;;;;;;;25.56;35.36;99093.84;4316625;33;33465;-68
2023/08/07 08:35:13;;;;;;;1.95;0.60;;;;;;;25.55;35.19;99103.09;4316508;33;33581;-68
2023/08/07 08:37:41;;;;;;;4.90;0.82;;;;;;;25.55;35.41;99099.53;4316295;33;33885;-68
2023/08/07 08:40:12;;;;;;;2.05;0.50;;;;;;;25.55;35.21;99094.06;4316358;33;33430;-68
2023/08/07 08:42:40;;;;;;;0.55;0.50;;;;;;;25.54;35.65;99108.81;4302880;33;32907;-68
2023/08/07 08:45:10;;;;;;;1.08;0.68;;;;;;;25.55;36.15;99115.94;4314979;33;33875;-69
2023/08/07 08:47:38;;;;;;;2.03;0.60;;;;;;;25.56;35.74;99112.97;4316296;33;34599;-68
2023/08/07 08:50:11;;;;;;;2.40;0.73;;;;;;;25.57;35.75;99116.50;4316304;33;33552;-68
2023/08/07 08:52:41;;;;;;;2.40;0.80;;;;;;;25.56;35.50;99123.06;4316742;33;34529;-68
2023/08/07 08:55:09;;;;;;;1.33;0.70;;;;;;;25.55;35.71;99133.13;4318135;33;33921;-67
2023/08/07 08:57:38;;;;;;;2.55;0.68;;;;;;;25.56;36.04;99132.09;4305084;33;33506;-68
2023/08/07 09:00:15;;;;;;;1.52;0.75;;;;;;;25.56;35.84;99123.87;4318347;33;33640;-68
2023/08/07 09:02:44;;;;;;;0.70;0.60;;;;;;;25.56;35.88;99140.28;4316911;33;33825;-68
2023/08/07 09:05:11;;;;;;;1.55;0.60;;;;;;;25.56;35.54;99139.47;4316743;33;34575;-68
2023/08/07 09:07:40;;;;;;;1.80;0.60;;;;;;;25.56;35.73;99131.25;4317909;33;33633;-68
2023/08/07 09:10:11;;;;;;;3.03;0.75;;;;;;;25.56;35.58;99134.81;4318038;33;32929;-67
2023/08/07 09:13:04;;;;;;;1.80;0.70;;;;;;;25.56;35.46;99128.53;4316458;33;34617;-68
2023/08/07 09:15:32;;;;;;;1.23;0.60;;;;;;;25.59;36.11;99128.81;4304824;33;33590;-68
2023/08/07 09:18:00;;;;;;;0.95;0.70;;;;;;;25.56;35.56;99140.28;4316636;33;34130;-68
2023/08/07 09:20:28;;;;;;;0.65;0.40;;;;;;;25.56;35.83;99142.19;4316946;33;34293;-68
2023/08/07 09:22:56;;;;;;;1.77;0.52;;;;;;;25.57;35.62;99138.38;4316653;33;33904;-68
2023/08/07 09:25:30;;;;;;;2.15;0.70;;;;;;;25.57;35.58;99141.91;4317997;33;33828;-68
2023/08/07 09:28:00;;;;;;;0.77;0.52;;;;;;;25.58;35.30;99138.09;4317725;33;34558;-67
2023/08/07 09:30:28;;;;;;;1.02;0.60;;;;;;;25.58;35.56;99142.75;4304593;33;33157;-68
2023/08/07 09:32:57;;;;;;;0.60;0.60;;;;;;;25.58;35.75;99146.31;4316981;33;33860;-70
2023/08/07 14:41:36;;;;;;;1.40;0.80;;;;;;;25.79;37.78;99357.00;4524786;27;20100;-66
2023/08/07 14:44:04;;;;;;;0.70;0.43;;;;;;;25.76;37.58;99362.94;4318746;33;33325;-66
2023/08/07 14:46:32;;;;;;;2.53;0.68;;;;;;;25.73;37.45;99366.97;4316308;33;33569;-66
2023/08/07 14:48:59;;;;;;;2.45;0.60;;;;;;;25.72;37.47;99365.31;4316419;33;33577;-66
2023/08/07 14:51:27;;;;;;;0.60;0.60;;;;;;;25.73;37.60;99358.75;4317212;33;33864;-66
2023/08/07 14:53:55;;;;;;;1.08;0.62;;;;;;;25.69;37.30;99354.88;4304257;33;32816;-66
2023/08/07 14:56:22;;;;;;;3.42;0.80;;;;;;;25.68;37.14;99361.44;4316131;33;34696;-66
2023/08/07 14:58:50;;;;;;;2.12;0.75;;;;;;;25.66;37.13;99363.59;4311720;33;34550;-66
2023/08/07 15:01:17;;;;;;;1.87;0.70;;;;;;;25.65;37.28;99362.78;4290037;33;33428;-66
2023/08/07 15:03:45;;;;;;;2.40;1.00;;;;;;;25.65;37.10;99367.41;4302709;33;33829;-66
2023/08/07 15:06:13;;;;;;;1.23;0.70;;;;;;;25.65;37.06;99362.78;4302776;33;34949;-66
2023/08/07 15:08:41;;;;;;;2.42;0.70;;;;;;;25.64;37.35;99365.75;4289546;33;32870;-67
2023/08/07 15:11:08;;;;;;;1.25;0.77;;;;;;;25.65;37.46;99364.69;4301620;33;33891;-66
2023/08/07 15:13:36;;;;;;;2.22;0.70;;;;;;;25.64;37.15;99363.84;4302617;33;33585;-66
2023/08/07 15:16:03;;;;;;;2.20;0.60;;;;;;;25.63;37.14;99359.47;4301441;33;34630;-66
2023/08/07 15:18:31;;;;;;;1.05;0.57;;;;;;;25.63;37.22;99372.28;4301388;33;33804;-67
2023/08/07 15:21:00;;;;;;;2.40;1.17;;;;;;;25.63;37.16;99367.66;4289338;33;33489;-67
2023/08/07 15:23:28;;;;;;;5.25;0.90;;;;;;;25.63;37.19;99359.47;4289736;33;34651;-66
2023/08/07 15:25:55;;;;;;;2.72;0.80;;;;;;;25.64;37.26;99365.75;4301445;33;33685;-66
2023/08/07 15:28:24;;;;;;;2.00;0.62;;;;;;;25.62;37.27;99355.06;4289284;33;34643;-66
2023/08/07 15:30:52;;;;;;;3.72;1.00;;;;;;;25.62;37.36;99363.28;4301268;33;32558;-65
2023/08/07 15:33:20;;;;;;;4.37;0.93;;;;;;;25.64;37.21;99354.81;4302582;33;33920;-67
2023/08/07 15:35:53;;;;;;;2.25;0.75;;;;;;;25.62;37.49;99352.34;4296840;33;33914;-66
2023/08/07 15:38:21;;;;;;;;;;;;;;;25.63;37.38;99354.00;4317505;33;34057;-66
2023/08/07 15:40:49;;;;;;;3.45;0.80;;;;;;;25.76;37.18;99352.00;4317114;33;33074;-68
2023/08/07 15:43:17;;;;;;;1.85;0.80;;;;;;;25.66;37.36;99358.97;4315970;33;34593;-68
2023/08/07 15:45:46;;;;;;;4.10;1.10;;;;;;;25.64;37.50;99354.81;4317068;33;34108;-68
2023/08/07 15:48:15;;;;;;;2.08;0.85;;;;;;;25.63;37.49;99356.72;4292343;33;32715;-66
2023/08/07 15:50:44;;;;;;;1.25;0.60;;;;;;;25.63;37.32;99355.91;4303782;33;34163;-66
2023/08/07 15:53:12;;;;;;;2.00;0.70;;;;;;;25.60;37.53;99349.06;4315652;33;33909;-66
2023/08/07 15:55:39;;;;;;;2.85;0.80;;;;;;;25.61;37.59;99361.63;4316853;33;33905;-67
2023/08/07 15:58:07;;;;;;;1.30;0.70;;;;;;;25.61;37.73;99369.00;4303778;33;34594;-66
2023/08/07 16:00:35;;;;;;;2.53;0.75;;;;;;;25.61;37.59;99361.63;4315586;33;33928;-68
2023/08/07 16:03:06;;;;;;;1.17;0.80;;;;;;;25.62;37.43;99357.81;4290600;33;32593;-66
2023/08/07 16:05:35;;;;;;;2.80;0.80;;;;;;;25.62;37.53;99351.53;4303592;33;35189;-67
2023/08/07 16:08:04;;;;;;;3.47;0.70;;;;;;;25.62;37.37;99354.25;4291682;33;32865;-66
2023/08/07 16:10:32;;;;;;;1.95;0.95;;;;;;;25.62;37.41;99351.53;4291610;33;32991;-67
2023/08/07 16:13:00;;;;;;;2.45;0.88;;;;;;;25.64;37.26;99349.34;4316920;33;33892;-67
2023/08/07 16:15:28;;;;;;;1.60;0.98;;;;;;;25.65;37.24;99351.03;4303428;33;34002;-67
2023/08/07 16:17:57;;;;;;;2.67;1.05;;;;;;;25.65;37.24;99353.75;4315409;33;34572;-66
2023/08/07 16:20:25;;;;;;;1.75;0.90;;;;;;;25.63;37.39;99358.63;4303659;33;34419;-66
2023/08/07 16:22:53;;;;;;;1.27;0.82;;;;;;;25.64;37.36;99357.53;4303267;33;34662;-67
2023/08/07 16:25:20;;;;;;;2.47;0.68;;;;;;;25.62;37.32;99357.81;4316501;33;34139;-67
2023/08/07 16:27:50;;;;;;;2.35;0.80;;;;;;;25.61;37.39;99361.63;4303278;33;33661;-66
2023/08/07 16:30:18;;;;;;;3.95;1.20;;;;;;;25.61;37.38;99366.25;4316462;33;33532;-66
2023/08/07 16:32:46;;;;;;;1.98;0.82;;;;;;;25.62;37.34;99370.66;4315279;33;34324;-67
2023/08/07 16:35:16;;;;;;;3.45;1.17;;;;;;;25.60;37.34;99362.72;4311558;33;34671;-67
2023/08/07 16:37:44;;;;;;;1.73;1.10;;;;;;;25.60;37.34;99359.97;4288694;33;33287;-66
2023/08/07 16:40:13;;;;;;;2.50;0.95;;;;;;;25.60;37.37;99359.13;4309234;33;33408;-67
2023/08/07 16:42:40;;;;;;;4.37;1.20;;;;;;;25.60;37.33;99362.72;4315953;33;33149;-66
2023/08/07 16:45:09;;;;;;;2.40;0.80;;;;;;;25.59;37.41;99358.31;4314487;33;34085;-66
2023/08/07 16:47:38;;;;;;;1.77;1.08;;;;;;;25.59;37.54;99368.41;4301947;33;33676;-66